Bauru Airport

SBBU · São Paulo, 巴西

2024年5月30日 03:002024年5月30日 15:00有效
时间
星期四
03:00
星期四
04:00
星期四
05:00
星期四
06:00
星期四
07:00
星期四
08:00
星期四
09:00
星期四
10:00
星期四
11:00
星期四
12:00
星期四
13:00
星期四
14:00
代码
VFR
VFR
VFR
VFR
VFR
VFR
VFR
VFR
VFR
VFR
VFR
VFR
天气
天空晴朗
天空晴朗
天空晴朗
天空晴朗
天空晴朗
天空晴朗
天空晴朗
天空晴朗
天空晴朗
天空晴朗
天空晴朗
天空晴朗
能见度
10 km+
10 km+
10 km+
10 km+
10 km+
10 km+
10 km+
10 km+
10 km+
10 km+
10 km+
10 km+
天花板
-
-
-
-
-
-
-
-
-
-
-
-
120°
120°
120°
120°
120°
120°
120°
120°
120°
120°
120°
120°
120°
120°
120°
120°
120°
120°
120°
120°
120°
120°
120°
120°
速度
7 kt
7 kt
7 kt
7 kt
7 kt
7 kt
7 kt
7 kt
7 kt
7 kt
7 kt
7 kt
阵风
温度/星期日
06:47
10 °C
22 °C

原版的

TAF SBBU 300430Z 3006/3018 12007KT CAVOK TN10/3009Z TX22/3017Z RMK PGL

TAF Bauru Airport

Bauru Airport是,巴西中的小机场。 该机场位于纬度-22,34550和经度-49,05295。 该机场有一条跑道: 14/32. 本场的ICAO机场代码为SBBU。 该机场的IATA代码为BAU。 机场在Curitiba FIR中。

该航空气象观测是针对Bauru Airport在2024年5月30日 01:30, 当地时间进行的。 从2024年5月30日 03:00到2024年5月30日 15:00, 当地时间有效.

预报

  • 在星期四 03:00和15:00之间

    • 风: 风来自120°方向,速度为7 kt。
    • CAVOK: 天气为CAVOK。这意味着在5.000 ft或MSA(最低安全高度)以下(以较高者为准)以下没有云。这也意味着没有观测到积雨云或高耸的积云,可见度为10 km 或者更多或更高。此外,不会有雾,降雨或其他重要天气。
    • 最低温度: 10 °C在2024年5月30日在06:00
    • 最高温度: 22 °C在2024年5月30日在14:00

白天

今天,太阳从06:47升起,在17:39降落。 这适用于Bauru Airport,世界夏令时可能有所不同。 当地时间与世界标准时间之间的时差为-3 小时。 夏令时目前正在进行中。

报告变更